Time;durP1;ratioP1;P1;durP2;ratioP2;P2;SDS_P1;SDS_P2;PMS_P1;PMS_P2;Temp;Humidity;BMP_temperature;BMP_pressure;BME280_temperature;BME280_humidity;BME280_pressure;Samples;Min_cycle;Max_cycle;Signal;HPM_P1;HPM_P2
2020/12/18 00:00:33;;;;;;;21.25;7.15;;;9.00;99.90;;;8.52;99.77;101566.09;4154012;28;20053;-70
2020/12/18 00:02:34;;;;;;;9.13;5.03;;;9.00;99.90;;;8.56;100.00;101568.38;4152622;28;20037;-70
2020/12/18 00:04:34;;;;;;;15.15;6.00;;;8.90;99.90;;;8.47;100.00;101553.34;4153926;28;20036;-70
2020/12/18 00:06:36;;;;;;;11.27;5.30;;;9.00;99.90;;;8.46;100.00;101570.06;4136434;28;20031;-70
2020/12/18 00:08:39;;;;;;;11.05;5.25;;;8.90;99.90;;;8.58;100.00;101560.34;4153929;28;20053;-70
2020/12/18 00:10:41;;;;;;;13.00;5.22;;;8.90;99.90;;;8.48;99.71;101560.28;4153820;28;20034;-70
2020/12/18 00:12:42;;;;;;;14.00;5.10;;;8.90;99.90;;;8.44;100.00;101561.47;4152639;28;20028;-70
2020/12/18 00:14:43;;;;;;;11.52;5.30;;;8.80;99.90;;;8.50;100.00;101566.25;4152716;28;20105;-70
2020/12/18 00:16:43;;;;;;;14.65;5.45;;;8.90;99.90;;;8.29;100.00;101560.06;4153736;28;20033;-70
2020/12/18 00:18:45;;;;;;;15.32;5.18;;;8.80;99.90;;;8.39;100.00;101562.81;4152453;28;20505;-70
2020/12/18 00:20:52;;;;;;;17.00;5.60;;;8.80;99.90;;;8.55;99.52;101558.81;4152382;28;20108;-70
2020/12/18 00:22:52;;;;;;;21.23;6.43;;;8.90;99.90;;;8.65;99.08;101567.66;4152628;28;20032;-70
2020/12/18 00:24:53;;;;;;;16.98;5.13;;;8.90;99.90;;;8.61;99.08;101560.09;4153558;28;20084;-70
2020/12/18 00:26:54;;;;;;;13.43;5.05;;;9.00;99.90;;;8.37;99.99;101568.16;4152267;28;20026;-70
2020/12/18 00:28:55;;;;;;;17.58;5.57;;;9.00;99.90;;;8.45;100.00;101560.53;4152510;28;20537;-70
2020/12/18 00:30:56;;;;;;;15.88;4.90;;;8.90;99.90;;;8.52;100.00;101563.47;4153606;28;20033;-70
2020/12/18 00:32:57;;;;;;;15.88;4.80;;;9.00;99.90;;;8.42;100.00;101555.50;4152331;28;20022;-70
2020/12/18 00:34:58;;;;;;;13.88;4.90;;;8.90;99.90;;;8.35;99.95;101559.56;4151928;28;20567;-70
2020/12/18 00:36:58;;;;;;;15.13;4.78;;;8.90;99.90;;;8.39;100.00;101566.28;4152278;28;20026;-70
2020/12/18 00:39:01;;;;;;;13.93;5.50;;;8.80;99.90;;;8.36;100.00;101553.38;4151300;28;20034;-70
2020/12/18 00:41:02;;;;;;;16.75;6.13;;;8.80;99.90;;;8.38;100.00;101559.34;4135982;28;20088;-70
2020/12/18 00:43:03;;;;;;;13.77;4.85;;;8.80;99.90;;;8.26;100.00;101549.75;4152082;28;20033;-70
2020/12/18 00:45:04;;;;;;;17.05;4.63;;;8.80;99.90;;;8.27;100.00;101543.56;4152156;28;20033;-70
2020/12/18 00:47:05;;;;;;;10.52;4.05;;;8.80;99.90;;;8.44;100.00;101548.31;4151915;28;20418;-70
2020/12/18 00:49:06;;;;;;;16.75;5.05;;;8.80;99.90;;;8.53;99.13;101546.75;4151756;28;20061;-70
2020/12/18 00:51:07;;;;;;;17.00;5.35;;;8.90;99.90;;;8.35;100.00;101546.44;4152011;28;20041;-70
2020/12/18 00:53:08;;;;;;;13.75;4.53;;;8.90;99.90;;;8.40;100.00;101527.66;4153248;28;20033;-70
2020/12/18 00:55:09;;;;;;;10.82;4.45;;;8.90;99.90;;;8.42;100.00;101537.09;4184939;28;20294;-69
2020/12/18 00:57:10;;;;;;;16.13;5.20;;;8.90;99.90;;;8.31;100.00;101547.63;4153096;28;20042;-69
2020/12/18 00:59:11;;;;;;;14.73;5.40;;;8.90;99.90;;;8.40;100.00;101536.38;4151853;28;20030;-70
2020/12/18 01:01:12;;;;;;;13.05;5.20;;;8.90;99.90;;;8.34;100.00;101531.59;4151805;28;20437;-70
2020/12/18 01:03:13;;;;;;;9.32;4.75;;;9.00;99.90;;;8.45;99.90;101536.88;4151820;28;20539;-70
2020/12/18 01:05:15;;;;;;;9.57;4.40;;;9.00;99.90;;;8.39;100.00;101537.34;4151408;28;20033;-70
2020/12/18 01:07:15;;;;;;;12.20;4.22;;;8.90;99.90;;;8.44;100.00;101527.28;4151596;28;20097;-70
2020/12/18 01:09:16;;;;;;;13.18;4.38;;;9.00;99.90;;;8.56;100.00;101534.19;4153116;28;20032;-70
2020/12/18 01:11:17;;;;;;;9.45;4.38;;;9.00;99.90;;;8.53;100.00;101531.81;4153016;28;20022;-70
2020/12/18 01:13:18;;;;;;;11.60;5.30;;;9.00;99.90;;;8.60;100.00;101534.78;4135467;28;20034;-70
2020/12/18 01:15:19;;;;;;;12.15;4.22;;;9.10;99.90;;;8.62;100.00;101548.63;4151813;28;20029;-70
2020/12/18 01:17:20;;;;;;;11.40;4.22;;;9.10;99.90;;;8.57;100.00;101533.22;4151734;28;20033;-70
2020/12/18 01:19:21;;;;;;;15.77;4.70;;;9.00;99.90;;;8.52;100.00;101527.50;4151444;28;20583;-70
2020/12/18 01:21:22;;;;;;;12.63;4.60;;;9.10;99.90;;;8.55;100.00;101539.56;4151709;28;20489;-69
2020/12/18 01:23:23;;;;;;;13.02;4.00;;;9.00;99.90;;;8.58;100.00;101532.28;4152647;28;20026;-70
2020/12/18 01:25:24;;;;;;;13.15;4.28;;;9.10;99.90;;;8.58;99.59;101539.31;4152603;28;20517;-69
2020/12/18 01:27:24;;;;;;;15.90;4.82;;;9.10;99.90;;;8.55;100.00;101531.69;4151576;28;20437;-70
2020/12/18 01:29:26;;;;;;;10.05;3.97;;;9.10;99.90;;;8.65;99.65;101525.56;4152839;28;20018;-69
2020/12/18 01:31:26;;;;;;;8.20;3.92;;;9.20;99.90;;;8.62;99.37;101531.06;4151472;28;20030;-70
2020/12/18 01:33:27;;;;;;;10.93;4.13;;;9.20;99.90;;;8.66;99.63;101532.47;4151444;28;20026;-70
2020/12/18 01:35:28;;;;;;;14.43;4.00;;;9.20;99.90;;;8.67;99.82;101526.28;4152473;28;20033;-70
2020/12/18 01:37:29;;;;;;;13.15;4.38;;;9.20;99.90;;;8.65;99.51;101528.19;4152681;28;20052;-70
2020/12/18 01:39:30;;;;;;;14.52;4.30;;;9.20;99.90;;;8.74;99.17;101527.44;4152595;28;20084;-70
2020/12/18 01:41:32;;;;;;;12.73;5.05;;;9.20;99.90;;;8.69;99.22;101532.22;4151299;28;20026;-70
2020/12/18 01:43:33;;;;;;;13.73;4.07;;;9.30;99.90;;;8.63;99.78;101522.19;4151455;28;20520;-70
2020/12/18 01:45:34;;;;;;;13.55;4.53;;;9.20;99.90;;;8.54;100.00;101522.94;4151017;28;20026;-70
2020/12/18 01:47:35;;;;;;;14.18;4.68;;;9.20;99.90;;;8.48;100.00;101523.47;4152472;28;20559;-70
2020/12/18 01:49:36;;;;;;;15.80;4.38;;;9.10;99.90;;;8.57;100.00;101533.22;4151949;28;20489;-70
2020/12/18 01:51:37;;;;;;;8.30;3.78;;;9.10;99.90;;;8.55;100.00;101524.63;4135029;28;20038;-70
2020/12/18 01:53:40;;;;;;;10.75;4.05;;;9.10;99.90;;;8.52;100.00;101518.78;4151235;28;20032;-70
2020/12/18 01:55:41;;;;;;;18.07;4.43;;;9.10;99.90;;;8.64;100.00;101513.38;4167480;28;20033;-70
2020/12/18 01:57:44;;;;;;;10.43;4.18;;;9.20;99.90;;;8.62;100.00;101504.78;4152239;28;20033;-70
2020/12/18 01:59:45;;;;;;;12.70;4.50;;;9.20;99.90;;;8.80;99.98;101498.00;4151207;28;20061;-70
2020/12/18 02:01:46;;;;;;;12.75;4.40;;;9.30;99.90;;;8.85;99.65;101511.63;4151231;28;20045;-70
2020/12/18 02:03:47;;;;;;;10.85;4.03;;;9.30;99.90;;;8.83;99.63;101515.34;4150697;28;20030;-70
2020/12/18 02:05:48;;;;;;;15.25;4.97;;;9.30;99.90;;;8.96;99.51;101512.53;4150863;28;20048;-70
2020/12/18 02:08:03;;;;;;;13.32;5.10;;;9.40;99.90;;;9.04;98.69;101499.56;4152454;28;20020;-70
2020/12/18 02:10:05;;;;;;;17.30;5.13;;;9.50;99.90;;;8.98;98.88;101505.34;4151069;28;20036;-70
2020/12/18 02:12:07;;;;;;;10.10;4.45;;;9.60;99.90;;;9.05;99.05;101506.50;4150931;28;20525;-70
2020/12/18 02:14:13;;;;;;;18.67;4.80;;;9.60;99.90;;;8.97;99.04;101498.41;4152357;28;20026;-70
2020/12/18 02:16:15;;;;;;;7.13;4.07;;;9.60;99.90;;;9.06;99.47;101501.09;4151101;28;20093;-70
2020/12/18 02:18:16;;;;;;;12.80;4.20;;;9.70;99.90;;;9.01;99.71;101499.81;4150989;28;20042;-70
2020/12/18 02:20:17;;;;;;;11.52;4.25;;;9.70;99.90;;;9.01;100.00;101489.28;4150673;28;20473;-69
2020/12/18 02:22:22;;;;;;;12.02;4.60;;;9.60;99.90;;;9.02;100.00;101489.16;4152262;28;20041;-70
2020/12/18 02:24:27;;;;;;;16.65;4.70;;;9.60;99.90;;;9.04;99.89;101475.88;4150944;28;20429;-70
2020/12/18 02:26:28;;;;;;;13.65;4.65;;;9.60;99.90;;;9.02;99.75;101483.88;4150925;28;20501;-70
2020/12/18 02:28:29;;;;;;;14.10;4.75;;;9.60;99.90;;;8.94;100.00;101467.91;4150724;28;20062;-70
2020/12/18 02:30:30;;;;;;;13.95;5.88;;;9.50;99.90;;;9.10;99.64;101480.63;4152136;28;20041;-70
2020/12/18 02:32:31;;;;;;;15.65;5.97;;;9.60;99.90;;;8.93;100.00;101475.94;4152055;28;20389;-69
2020/12/18 02:34:34;;;;;;;19.90;5.82;;;9.50;99.90;;;8.89;99.96;101470.09;4151711;28;20058;-69
2020/12/18 02:36:34;;;;;;;16.33;5.97;;;9.50;99.90;;;8.98;99.84;101471.13;4151809;28;20033;-70
2020/12/18 02:38:36;;;;;;;13.52;6.07;;;9.50;99.90;;;8.87;99.68;101462.31;4152085;28;20026;-70
2020/12/18 02:40:37;;;;;;;15.35;6.65;;;9.40;99.90;;;8.89;99.64;101470.94;4150757;28;20025;-69
2020/12/18 02:42:38;;;;;;;13.00;6.25;;;9.40;99.90;;;8.82;100.00;101458.41;4151981;28;20038;-70
2020/12/18 02:44:39;;;;;;;14.52;6.57;;;9.40;99.90;;;8.88;100.00;101457.91;4150647;28;20029;-69
2020/12/18 02:46:40;;;;;;;15.98;6.78;;;9.30;99.90;;;8.94;100.00;101456.56;4150505;28;20448;-70
2020/12/18 02:48:41;;;;;;;13.00;4.78;;;9.40;99.90;;;8.93;100.00;101453.09;4151807;28;20505;-70
2020/12/18 02:50:42;;;;;;;15.07;5.40;;;9.40;99.90;;;8.73;100.00;101460.00;4151685;28;20026;-70
2020/12/18 02:52:43;;;;;;;23.00;6.03;;;9.40;99.90;;;8.80;100.00;101455.91;4150603;28;20032;-69
2020/12/18 02:54:44;;;;;;;12.68;4.50;;;9.40;99.90;;;8.77;100.00;101471.13;4150739;28;20025;-70
2020/12/18 02:56:44;;;;;;;15.80;5.05;;;9.40;99.90;;;8.81;100.00;101462.03;4150725;28;20033;-70
2020/12/18 02:58:45;;;;;;;13.82;4.47;;;9.40;99.90;;;8.79;100.00;101451.63;4150557;28;20085;-70
2020/12/18 03:00:47;;;;;;;11.75;5.25;;;9.30;99.90;;;8.94;100.00;101459.19;4150515;28;20521;-70
2020/12/18 03:02:47;;;;;;;14.05;5.18;;;9.40;99.90;;;8.83;100.00;101439.88;4137171;28;20541;-70
2020/12/18 03:04:48;;;;;;;13.48;4.32;;;9.40;99.90;;;8.96;100.00;101434.41;4154754;28;20034;-70
2020/12/18 03:06:49;;;;;;;11.23;4.90;;;9.50;99.90;;;9.06;100.00;101439.75;4153696;28;20034;-70
2020/12/18 03:08:50;;;;;;;13.68;3.78;;;9.50;99.90;;;8.94;100.00;101435.50;4154912;28;20053;-70
2020/12/18 03:10:51;;;;;;;14.82;4.43;;;9.50;99.90;;;9.05;100.00;101435.47;4153761;28;20112;-70
2020/12/18 03:12:52;;;;;;;16.42;4.18;;;9.60;99.90;;;9.15;100.00;101431.06;4154808;28;20026;-70
2020/12/18 03:14:53;;;;;;;13.07;4.13;;;9.70;99.90;;;9.23;100.00;101420.72;4154780;28;20034;-70
2020/12/18 03:16:54;;;;;;;10.77;4.70;;;9.70;99.90;;;9.20;100.00;101429.72;4154778;28;20105;-70
2020/12/18 03:18:56;;;;;;;12.45;4.07;;;9.80;99.90;;;9.29;100.00;101430.72;4153318;28;20037;-70
2020/12/18 03:20:57;;;;;;;11.70;3.88;;;9.80;99.90;;;9.19;100.00;101433.31;4153588;28;20026;-70
2020/12/18 03:22:58;;;;;;;12.85;4.03;;;9.80;99.90;;;9.27;100.00;101438.75;4153587;28;20034;-69
2020/12/18 03:24:59;;;;;;;15.02;3.92;;;9.80;99.90;;;9.25;100.00;101430.16;4154661;28;20536;-69
2020/12/18 03:27:00;;;;;;;13.35;3.65;;;9.80;99.90;;;9.28;100.00;101431.69;4153277;28;20038;-69
2020/12/18 03:29:00;;;;;;;14.90;3.78;;;9.90;99.90;;;9.36;100.00;101443.25;4153508;28;20063;-69
2020/12/18 03:31:01;;;;;;;11.68;3.28;;;9.90;99.90;;;9.38;100.00;101443.09;4154593;28;20053;-70
2020/12/18 03:33:03;;;;;;;10.18;3.42;;;10.00;99.90;;;9.45;100.00;101425.81;4153322;28;20061;-69
2020/12/18 03:35:05;;;;;;;15.65;4.82;;;10.00;99.90;;;9.54;100.00;101427.66;4136643;28;20022;-70
2020/12/18 03:37:06;;;;;;;15.77;4.35;;;10.10;99.90;;;9.56;100.00;101417.81;4153304;28;20049;-70
2020/12/18 03:39:07;;;;;;;12.63;4.13;;;10.20;99.90;;;9.50;100.00;101423.63;4136995;28;20026;-70
2020/12/18 03:41:08;;;;;;;7.95;2.70;;;10.20;99.90;;;9.54;100.00;101425.03;4153310;28;20513;-70
2020/12/18 03:43:09;;;;;;;11.30;3.80;;;10.20;99.90;;;9.58;100.00;101421.19;4153030;28;20049;-69
2020/12/18 03:45:10;;;;;;;11.43;4.13;;;10.20;99.90;;;9.54;100.00;101424.19;4153186;28;20062;-70
2020/12/18 03:47:11;;;;;;;11.40;3.35;;;10.20;99.90;;;9.61;100.00;101420.91;4154097;28;20056;-70
2020/12/18 03:49:12;;;;;;;16.65;4.10;;;10.20;99.90;;;9.66;100.00;101417.84;4153828;28;20030;-70
2020/12/18 03:51:13;;;;;;;14.77;3.67;;;10.30;99.90;;;9.65;100.00;101424.91;4152904;28;20332;-70
2020/12/18 03:53:14;;;;;;;11.85;3.50;;;10.30;99.90;;;9.67;100.00;101436.19;4154244;28;20026;-70
2020/12/18 03:55:15;;;;;;;12.27;3.97;;;10.30;99.90;;;9.66;99.81;101428.41;4185977;28;20033;-70
2020/12/18 03:57:16;;;;;;;12.40;3.53;;;10.40;99.90;;;9.71;100.00;101432.28;4153021;28;20100;-70
2020/12/18 03:59:17;;;;;;;13.60;4.95;;;10.40;99.90;;;9.72;100.00;101436.59;4154048;28;20034;-70
2020/12/18 04:01:18;;;;;;;14.30;3.63;;;10.40;99.90;;;9.66;100.00;101431.88;4152767;28;20028;-70
2020/12/18 04:03:19;;;;;;;9.68;3.95;;;10.40;99.90;;;9.68;100.00;101431.72;4153998;28;20030;-70
2020/12/18 04:05:20;;;;;;;13.13;3.85;;;10.40;99.90;;;9.74;100.00;101426.75;4153770;28;20070;-70
2020/12/18 04:07:21;;;;;;;8.35;2.97;;;10.40;99.90;;;9.66;100.00;101416.06;4152576;28;20045;-70
2020/12/18 04:09:22;;;;;;;13.00;3.97;;;10.40;99.90;;;9.67;100.00;101409.00;4152894;28;20019;-70
2020/12/18 04:11:23;;;;;;;9.48;3.80;;;10.40;99.90;;;9.75;100.00;101412.63;4152730;28;20072;-70
2020/12/18 04:13:24;;;;;;;10.40;3.53;;;10.40;99.90;;;9.71;100.00;101403.31;4153686;28;20022;-70
2020/12/18 04:15:24;;;;;;;11.18;2.67;;;10.50;99.90;;;9.76;100.00;101395.88;4136312;28;20022;-70
2020/12/18 04:17:25;;;;;;;16.45;4.05;;;10.40;99.90;;;9.72;100.00;101399.72;4153921;28;20026;-70
2020/12/18 04:19:26;;;;;;;10.10;4.60;;;10.40;99.90;;;9.64;100.00;101386.41;4152452;28;20468;-70
2020/12/18 04:21:27;;;;;;;11.27;4.32;;;10.40;99.90;;;9.60;100.00;101397.31;4153771;28;20022;-70
2020/12/18 04:23:28;;;;;;;9.82;3.25;;;10.30;99.90;;;9.63;100.00;101399.69;4153635;28;20048;-70
2020/12/18 04:25:29;;;;;;;11.93;4.45;;;10.30;99.90;;;9.65;100.00;101388.03;4136111;28;20041;-70
2020/12/18 04:27:30;;;;;;;9.20;3.42;;;10.30;99.90;;;9.58;100.00;101389.56;4153713;28;20025;-70
2020/12/18 04:29:31;;;;;;;12.80;4.30;;;10.20;99.90;;;9.60;100.00;101385.00;4152469;28;20026;-70
2020/12/18 04:31:31;;;;;;;8.93;3.90;;;10.20;99.90;;;9.56;100.00;101380.94;4153640;28;20026;-70
2020/12/18 04:33:32;;;;;;;9.85;4.35;;;10.30;99.90;;;9.57;100.00;101385.25;4153688;28;20030;-70
2020/12/18 04:35:33;;;;;;;9.35;4.47;;;10.20;99.90;;;9.67;100.00;101388.75;4152137;28;20026;-70
2020/12/18 04:37:34;;;;;;;10.43;3.47;;;10.20;99.90;;;9.60;100.00;101384.16;4153520;28;20080;-70
2020/12/18 04:39:35;;;;;;;11.95;4.78;;;10.20;99.90;;;9.51;100.00;101375.25;4152274;28;20525;-70
2020/12/18 04:41:36;;;;;;;14.48;3.97;;;10.10;99.90;;;9.44;100.00;101385.47;4153684;28;20076;-70
2020/12/18 04:43:39;;;;;;;11.52;3.83;;;10.10;99.90;;;9.41;100.00;101385.75;4152260;28;20424;-70
2020/12/18 04:45:40;;;;;;;9.10;3.53;;;10.00;99.90;;;9.48;100.00;101383.41;4135622;28;20525;-70
2020/12/18 04:47:42;;;;;;;15.20;4.10;;;10.10;99.90;;;9.48;100.00;101377.31;4151891;28;20116;-70
2020/12/18 04:49:45;;;;;;;9.70;3.22;;;10.10;99.90;;;9.66;100.00;101384.44;4151717;28;20037;-70
2020/12/18 04:51:46;;;;;;;10.10;3.83;;;10.20;99.90;;;9.52;100.00;101379.56;4152305;28;20022;-70
2020/12/18 04:53:52;;;;;;;12.55;4.97;;;10.20;99.90;;;9.42;100.00;101381.31;4153374;28;20069;-70
2020/12/18 04:55:54;;;;;;;14.02;4.35;;;10.10;99.90;;;9.56;100.00;101374.88;4184757;28;20120;-70
2020/12/18 04:57:58;;;;;;;14.93;3.55;;;10.10;99.90;;;9.47;100.00;101365.94;4185045;28;20058;-70
2020/12/18 05:00:07;;;;;;;11.30;3.77;;;10.20;99.90;;;9.59;100.00;101377.22;4185039;28;20029;-70
2020/12/18 05:02:08;;;;;;;13.40;4.47;;;10.30;99.90;;;9.67;100.00;101377.38;4152970;28;20072;-70
2020/12/18 05:04:14;;;;;;;17.00;4.40;;;10.30;99.90;;;9.55;100.00;101373.19;4151494;28;20484;-70
2020/12/18 05:06:16;;;;;;;12.85;4.35;;;10.30;99.90;;;9.52;100.00;101371.66;4153129;28;20393;-71
2020/12/18 05:08:17;;;;;;;14.23;4.28;;;10.20;99.90;;;9.54;100.00;101377.63;4152993;28;20034;-70
2020/12/18 05:10:21;;;;;;;10.07;3.88;;;10.30;99.90;;;9.50;100.00;101378.84;4135590;28;20060;-70
2020/12/18 05:12:22;;;;;;;;;;;10.30;99.90;;;9.52;100.00;101378.72;4135941;28;20109;-70
2020/12/18 05:14:29;;;;;;;12.82;3.90;;;10.30;99.90;;;9.45;100.00;101378.41;4151881;28;19916;-70
2020/12/18 05:16:29;;;;;;;14.90;4.18;;;10.30;99.90;;;9.48;100.00;101383.41;4153080;28;20132;-70
2020/12/18 05:18:30;;;;;;;17.23;4.53;;;10.20;99.90;;;9.50;100.00;101368.31;4151888;28;20501;-70
2020/12/18 05:20:31;;;;;;;15.40;4.20;;;10.30;99.90;;;9.58;100.00;101367.66;4152634;28;20025;-70
2020/12/18 05:22:32;;;;;;;19.92;4.10;;;10.30;99.90;;;9.73;100.00;101376.84;4151832;28;20026;-70
2020/12/18 05:24:35;;;;;;;11.00;3.90;;;10.40;99.90;;;9.73;100.00;101382.97;4152519;28;20026;-70
2020/12/18 05:26:37;;;;;;;11.43;4.43;;;10.40;99.90;;;9.72;100.00;101397.09;4151647;28;20436;-70
2020/12/18 05:28:45;;;;;;;16.05;5.25;;;10.40;99.90;;;9.79;100.00;101392.13;4151763;28;20042;-70
2020/12/18 05:30:48;;;;;;;16.45;5.18;;;10.50;99.90;;;9.69;100.00;101391.25;4151499;28;20030;-69
2020/12/18 05:32:54;;;;;;;15.30;4.93;;;10.50;99.90;;;9.66;100.00;101402.06;4151661;28;20017;-69
2020/12/18 05:34:57;;;;;;;14.85;4.55;;;10.40;99.90;;;9.64;100.00;101389.03;4152377;28;20017;-69
2020/12/18 05:37:01;;;;;;;17.90;5.57;;;10.40;99.90;;;9.69;100.00;101391.25;4152687;28;20065;-69
2020/12/18 05:39:03;;;;;;;16.05;5.38;;;10.50;99.90;;;9.72;100.00;101381.28;4151567;28;20064;-70
2020/12/18 05:41:08;;;;;;;16.13;4.95;;;10.50;99.90;;;9.74;100.00;101381.97;4152681;28;20025;-70
2020/12/18 05:43:14;;;;;;;13.73;4.97;;;10.50;99.90;;;9.74;100.00;101374.06;4152563;28;20093;-70
2020/12/18 05:45:22;;;;;;;11.85;5.32;;;10.40;99.90;;;9.71;100.00;101390.13;4152824;28;20026;-70
2020/12/18 05:47:23;;;;;;;13.73;4.75;;;10.40;99.90;;;9.83;100.00;101389.06;4152710;28;20441;-70
2020/12/18 05:49:33;;;;;;;19.90;4.88;;;10.40;99.90;;;9.83;100.00;101390.88;4151055;28;20026;-70
2020/12/18 05:51:41;;;;;;;16.77;5.40;;;10.50;99.90;;;9.73;100.00;101388.22;4152395;28;20026;-70
2020/12/18 05:53:42;;;;;;;14.40;5.50;;;10.50;99.90;;;9.84;100.00;101396.00;4134876;28;20027;-70
2020/12/18 05:55:43;;;;;;;15.27;5.93;;;10.50;99.90;;;9.76;100.00;101392.38;4148412;28;20041;-70
2020/12/18 05:57:44;;;;;;;17.90;5.95;;;10.50;99.90;;;9.84;100.00;101395.16;4134818;28;20032;-70
2020/12/18 05:59:48;;;;;;;14.32;5.40;;;10.50;99.90;;;9.86;100.00;101401.97;4151261;28;20021;-70
2020/12/18 06:01:55;;;;;;;18.30;5.77;;;10.50;99.90;;;9.72;100.00;101401.50;4152486;28;20029;-70
2020/12/18 06:04:08;;;;;;;25.92;7.50;;;10.50;99.90;;;9.84;100.00;101390.75;4150856;28;20028;-70
2020/12/18 06:06:12;;;;;;;16.63;5.75;;;10.50;99.90;;;9.78;100.00;101391.28;4151248;28;20037;-70
2020/12/18 06:08:18;;;;;;;21.40;6.03;;;10.50;99.90;;;9.86;100.00;101388.78;4151101;28;20029;-70
2020/12/18 06:10:24;;;;;;;16.23;6.20;;;10.60;99.90;;;9.96;100.00;101384.38;4151079;28;20033;-70
2020/12/18 06:12:26;;;;;;;19.73;6.28;;;10.60;99.90;;;9.97;100.00;101388.66;4150997;28;20030;-70
2020/12/18 06:14:27;;;;;;;22.83;8.50;;;10.70;99.90;;;9.96;100.00;101388.81;4151124;28;20026;-70
2020/12/18 06:16:29;;;;;;;14.65;6.50;;;10.70;99.90;;;10.06;100.00;101386.22;4134741;28;20041;-70
2020/12/18 06:18:37;;;;;;;21.02;8.18;;;10.70;99.90;;;10.10;100.00;101392.84;4150830;28;20038;-70
2020/12/18 06:20:43;;;;;;;15.55;6.78;;;10.80;99.90;;;10.18;100.00;101388.63;4151162;28;20030;-71
2020/12/18 06:23:01;;;;;;;20.15;7.07;;;10.80;99.90;;;10.26;100.00;101386.13;4151081;28;20030;-69
2020/12/18 06:25:04;;;;;;;14.63;6.03;;;10.90;99.90;;;10.20;100.00;101380.56;4152050;28;20371;-70
2020/12/18 06:27:08;;;;;;;15.68;5.93;;;10.90;99.90;;;10.16;100.00;101385.25;4150971;28;20080;-70
2020/12/18 06:29:09;;;;;;;20.10;7.95;;;10.90;99.90;;;10.07;100.00;101374.66;4151040;28;20117;-70
2020/12/18 06:31:23;;;;;;;21.63;8.55;;;10.90;99.90;;;10.18;100.00;101393.06;4152101;28;20041;-70
2020/12/18 06:33:51;;;;;;;22.67;5.93;;;10.90;99.90;;;10.16;100.00;101379.16;4151894;28;20026;-70
2020/12/18 06:35:53;;;;;;;25.35;7.13;;;10.90;99.90;;;10.26;100.00;101390.53;4151903;28;20041;-70
2020/12/18 06:37:55;;;;;;;18.17;6.35;;;10.90;99.90;;;10.23;100.00;101386.38;4153956;28;20025;-70
2020/12/18 06:39:58;;;;;;;18.15;6.72;;;10.90;99.90;;;10.24;100.00;101380.16;4137825;28;20105;-70
2020/12/18 06:42:10;;;;;;;17.50;6.53;;;11.00;99.90;;;10.32;100.00;101382.09;4154097;28;20049;-70
2020/12/18 06:44:33;;;;;;;20.63;6.63;;;11.00;99.90;;;10.24;100.00;101379.31;4153943;28;20061;-70
2020/12/18 06:46:34;;;;;;;23.42;7.47;;;11.10;99.90;;;10.24;100.00;101380.16;4153837;28;20109;-70
2020/12/18 06:48:35;;;;;;;20.95;6.95;;;11.00;99.90;;;10.21;100.00;101369.03;4154931;28;20026;-70
2020/12/18 06:50:36;;;;;;;16.85;7.28;;;11.00;99.90;;;10.21;100.00;101377.78;4137460;28;20018;-70
2020/12/18 06:53:04;;;;;;;16.98;6.38;;;11.00;99.90;;;10.32;100.00;101384.72;4155125;28;20506;-70
2020/12/18 06:55:08;;;;;;;28.23;6.50;;;11.00;99.90;;;10.43;100.00;101376.66;4155318;28;20029;-71
2020/12/18 06:57:21;;;;;;;17.65;8.23;;;11.10;99.90;;;10.43;100.00;101388.06;4152661;28;20080;-71
2020/12/18 06:59:22;;;;;;;17.88;6.93;;;11.20;99.90;;;10.24;100.00;101377.53;4153089;28;20030;-71
2020/12/18 07:01:30;;;;;;;22.77;7.63;;;11.20;99.90;;;10.27;100.00;101369.34;4154395;28;20037;-71
2020/12/18 07:03:46;;;;;;;26.20;8.10;;;11.10;99.90;;;10.23;100.00;101375.00;4153229;28;20036;-71
2020/12/18 07:05:47;;;;;;;22.77;8.10;;;11.10;99.90;;;10.32;100.00;101363.63;4153352;28;20030;-71
2020/12/18 07:07:49;;;;;;;20.77;7.03;;;11.10;99.90;;;10.38;100.00;101363.06;4153771;28;20025;-71
2020/12/18 07:09:52;;;;;;;22.23;7.47;;;11.10;99.90;;;10.37;100.00;101366.66;4155083;28;20057;-71
2020/12/18 07:11:53;;;;;;;17.60;7.07;;;11.10;99.90;;;10.37;100.00;101358.75;4153612;28;20555;-71
2020/12/18 07:13:54;;;;;;;19.58;7.40;;;11.10;99.90;;;10.38;100.00;101363.06;4153610;28;20057;-71
2020/12/18 07:16:02;;;;;;;18.27;6.90;;;11.10;99.90;;;10.40;100.00;101350.56;4153657;28;20034;-71
2020/12/18 07:18:04;;;;;;;19.30;7.55;;;11.20;99.90;;;10.30;100.00;101361.16;4153458;28;20034;-71
2020/12/18 07:20:05;;;;;;;20.92;8.07;;;11.20;99.90;;;10.21;100.00;101355.88;4136938;28;20034;-71
2020/12/18 07:22:05;;;;;;;17.05;7.35;;;11.10;99.90;;;10.38;100.00;101357.78;4154471;28;20029;-72
2020/12/18 07:24:06;;;;;;;17.90;7.07;;;11.20;99.90;;;10.41;100.00;101354.88;4153536;28;20034;-71
2020/12/18 07:26:09;;;;;;;19.40;6.88;;;11.20;99.90;;;10.43;100.00;101350.28;4153192;28;20061;-71
2020/12/18 07:28:10;;;;;;;18.67;7.28;;;11.20;99.90;;;10.45;100.00;101338.63;4153415;28;20030;-71
2020/12/18 07:30:12;;;;;;;21.92;6.72;;;11.20;99.90;;;10.47;100.00;101349.03;4153010;28;20037;-71
2020/12/18 07:32:13;;;;;;;15.57;7.07;;;11.20;99.90;;;10.40;100.00;101356.69;4153192;28;20509;-71
2020/12/18 07:34:14;;;;;;;17.45;7.00;;;11.20;99.90;;;10.48;100.00;101342.81;4152979;28;20029;-71
2020/12/18 07:40:40;;;;;;;21.73;8.40;;;11.30;99.90;;;10.59;100.00;101344.44;3842119;26;20130;-71
2020/12/18 07:42:43;;;;;;;18.77;6.63;;;11.30;99.90;;;10.53;100.00;101330.03;4086008;29;20035;-71
2020/12/18 07:44:44;;;;;;;16.80;6.70;;;11.30;99.90;;;10.66;100.00;101335.00;4089157;29;20119;-71
2020/12/18 07:46:46;;;;;;;14.20;6.57;;;11.40;99.90;;;10.60;100.00;101317.09;4089195;29;20078;-71
2020/12/18 07:48:48;;;;;;;22.40;6.13;;;11.40;99.90;;;10.49;100.00;101328.63;4072587;29;20036;-71
2020/12/18 07:51:03;;;;;;;14.18;5.72;;;11.40;99.90;;;10.57;100.00;101345.41;4088855;29;20482;-71
2020/12/18 07:53:10;;;;;;;;;;;11.30;99.90;;;10.53;100.00;101344.03;4090458;29;20143;-71
2020/12/18 07:55:11;;;;;;;15.90;6.88;;;11.40;99.90;;;10.57;100.00;101338.50;4089331;29;19966;-71
2020/12/18 07:57:12;;;;;;;18.42;6.07;;;11.40;99.90;;;10.60;100.00;101336.41;4088342;29;20032;-71
2020/12/18 07:59:13;;;;;;;15.70;6.22;;;11.40;99.90;;;10.50;100.00;101327.66;4088613;29;20036;-71
2020/12/18 08:01:43;;;;;;;22.40;6.22;;;11.30;99.90;;;10.57;100.00;101333.22;4089697;29;20060;-71
2020/12/18 08:04:00;;;;;;;15.60;6.28;;;11.30;99.90;;;10.57;100.00;101326.94;4064815;29;20036;-71
2020/12/18 08:06:04;;;;;;;14.80;5.35;;;11.40;99.90;;;10.71;100.00;101336.22;4088399;29;20035;-72
2020/12/18 08:08:05;;;;;;;13.75;4.75;;;11.40;99.90;;;10.64;100.00;101315.81;4072412;29;20607;-71
2020/12/18 08:10:06;;;;;;;14.57;5.57;;;11.40;99.90;;;10.53;100.00;101314.19;4088095;29;20054;-71
2020/12/18 08:12:10;;;;;;;16.10;5.80;;;11.40;99.90;;;10.55;100.00;101323.63;4072756;29;20024;-71
2020/12/18 08:14:13;;;;;;;20.75;5.20;;;11.40;99.90;;;10.53;100.00;101327.38;4088507;29;20047;-71
2020/12/18 08:16:19;;;;;;;13.68;5.13;;;11.30;99.90;;;10.55;100.00;101334.19;4072717;29;20040;-71
2020/12/18 08:18:20;;;;;;;16.58;5.88;;;11.30;99.90;;;10.66;100.00;101330.56;4088733;29;20070;-70
2020/12/18 08:20:25;;;;;;;18.50;5.32;;;11.40;99.90;;;10.66;100.00;101322.66;4089601;29;20035;-70
2020/12/18 08:22:31;;;;;;;12.25;5.05;;;11.30;99.90;;;10.63;100.00;101312.38;4088245;29;20028;-69
2020/12/18 08:24:36;;;;;;;13.95;5.35;;;11.40;99.90;;;10.61;100.00;101310.81;4088213;29;20039;-70
2020/12/18 08:27:22;;;;;;;12.55;5.20;;;11.40;99.90;;;10.73;100.00;101329.00;4088320;29;20028;-69
2020/12/18 08:29:24;;;;;;;19.52;7.10;;;11.40;99.90;;;10.78;100.00;101315.38;4089656;29;20020;-71
2020/12/18 08:31:27;;;;;;;15.38;5.85;;;11.50;99.90;;;10.65;100.00;101309.59;4088308;29;20511;-71